sensor_id;sensor_type;location;lat;lon;timestamp;P1;durP1;ratioP1;P2;durP2;ratioP2
8574;SDS011;4325;42.520;27.448;2022-10-29T00:00:15;17.10;;;14.93;;
8574;SDS011;4325;42.520;27.448;2022-10-29T00:02:42;19.73;;;15.10;;
8574;SDS011;4325;42.520;27.448;2022-10-29T00:05:08;21.00;;;14.93;;
8574;SDS011;4325;42.520;27.448;2022-10-29T00:07:37;21.37;;;14.40;;
8574;SDS011;4325;42.520;27.448;2022-10-29T00:10:04;25.37;;;15.83;;
8574;SDS011;4325;42.520;27.448;2022-10-29T00:12:31;19.40;;;15.17;;
8574;SDS011;4325;42.520;27.448;2022-10-29T00:14:58;16.77;;;14.93;;
8574;SDS011;4325;42.520;27.448;2022-10-29T00:17:25;20.23;;;15.10;;
8574;SDS011;4325;42.520;27.448;2022-10-29T00:19:52;21.80;;;15.53;;
8574;SDS011;4325;42.520;27.448;2022-10-29T00:22:18;23.33;;;16.27;;
8574;SDS011;4325;42.520;27.448;2022-10-29T00:24:47;21.37;;;16.10;;
8574;SDS011;4325;42.520;27.448;2022-10-29T00:27:14;18.50;;;16.40;;
8574;SDS011;4325;42.520;27.448;2022-10-29T00:29:40;19.80;;;15.70;;
8574;SDS011;4325;42.520;27.448;2022-10-29T00:32:07;18.70;;;15.37;;
8574;SDS011;4325;42.520;27.448;2022-10-29T00:34:34;22.30;;;15.23;;
8574;SDS011;4325;42.520;27.448;2022-10-29T00:37:01;23.03;;;16.67;;
8574;SDS011;4325;42.520;27.448;2022-10-29T00:39:28;20.40;;;15.13;;
8574;SDS011;4325;42.520;27.448;2022-10-29T00:41:58;19.70;;;15.40;;
8574;SDS011;4325;42.520;27.448;2022-10-29T00:44:29;17.17;;;13.93;;
8574;SDS011;4325;42.520;27.448;2022-10-29T00:47:00;21.70;;;14.40;;
8574;SDS011;4325;42.520;27.448;2022-10-29T00:49:35;17.73;;;14.87;;
8574;SDS011;4325;42.520;27.448;2022-10-29T00:52:02;16.30;;;13.93;;
8574;SDS011;4325;42.520;27.448;2022-10-29T00:54:30;23.40;;;15.57;;
8574;SDS011;4325;42.520;27.448;2022-10-29T00:57:05;17.67;;;14.70;;
8574;SDS011;4325;42.520;27.448;2022-10-29T00:59:35;18.90;;;15.53;;
8574;SDS011;4325;42.520;27.448;2022-10-29T01:02:02;25.03;;;14.47;;
8574;SDS011;4325;42.520;27.448;2022-10-29T01:04:29;19.37;;;14.80;;
8574;SDS011;4325;42.520;27.448;2022-10-29T01:06:56;18.70;;;15.07;;
8574;SDS011;4325;42.520;27.448;2022-10-29T01:09:23;21.73;;;15.07;;
8574;SDS011;4325;42.520;27.448;2022-10-29T01:11:54;21.70;;;15.70;;
8574;SDS011;4325;42.520;27.448;2022-10-29T01:14:37;21.30;;;15.13;;
8574;SDS011;4325;42.520;27.448;2022-10-29T01:17:20;19.50;;;15.43;;
8574;SDS011;4325;42.520;27.448;2022-10-29T01:20:16;17.70;;;13.47;;
8574;SDS011;4325;42.520;27.448;2022-10-29T01:22:58;18.03;;;14.30;;
8574;SDS011;4325;42.520;27.448;2022-10-29T01:25:40;18.13;;;14.33;;
8574;SDS011;4325;42.520;27.448;2022-10-29T01:28:28;22.57;;;15.17;;
8574;SDS011;4325;42.520;27.448;2022-10-29T01:31:18;15.83;;;13.93;;
8574;SDS011;4325;42.520;27.448;2022-10-29T01:33:53;20.00;;;14.30;;
8574;SDS011;4325;42.520;27.448;2022-10-29T01:36:30;19.17;;;14.87;;
8574;SDS011;4325;42.520;27.448;2022-10-29T01:39:05;21.97;;;16.77;;
8574;SDS011;4325;42.520;27.448;2022-10-29T01:41:38;23.03;;;16.80;;
8574;SDS011;4325;42.520;27.448;2022-10-29T01:44:13;21.57;;;15.70;;
8574;SDS011;4325;42.520;27.448;2022-10-29T01:46:51;21.47;;;15.97;;
8574;SDS011;4325;42.520;27.448;2022-10-29T01:49:23;17.43;;;15.53;;
8574;SDS011;4325;42.520;27.448;2022-10-29T01:51:54;20.27;;;14.57;;
8574;SDS011;4325;42.520;27.448;2022-10-29T01:54:22;17.23;;;13.87;;
8574;SDS011;4325;42.520;27.448;2022-10-29T01:56:52;19.50;;;14.47;;
8574;SDS011;4325;42.520;27.448;2022-10-29T01:59:20;15.90;;;13.40;;
8574;SDS011;4325;42.520;27.448;2022-10-29T02:01:53;19.77;;;13.67;;
8574;SDS011;4325;42.520;27.448;2022-10-29T02:04:38;18.27;;;14.17;;
8574;SDS011;4325;42.520;27.448;2022-10-29T02:07:16;16.87;;;13.47;;
8574;SDS011;4325;42.520;27.448;2022-10-29T02:09:50;24.77;;;13.70;;
8574;SDS011;4325;42.520;27.448;2022-10-29T02:12:23;15.63;;;13.43;;
8574;SDS011;4325;42.520;27.448;2022-10-29T02:14:56;19.83;;;13.03;;
8574;SDS011;4325;42.520;27.448;2022-10-29T02:17:30;16.93;;;14.10;;
8574;SDS011;4325;42.520;27.448;2022-10-29T02:19:57;15.33;;;13.73;;
8574;SDS011;4325;42.520;27.448;2022-10-29T02:22:24;17.13;;;13.37;;
8574;SDS011;4325;42.520;27.448;2022-10-29T02:24:51;19.27;;;14.40;;
8574;SDS011;4325;42.520;27.448;2022-10-29T02:27:18;25.20;;;14.63;;
8574;SDS011;4325;42.520;27.448;2022-10-29T02:29:44;22.17;;;14.03;;
8574;SDS011;4325;42.520;27.448;2022-10-29T02:32:11;21.30;;;14.80;;
8574;SDS011;4325;42.520;27.448;2022-10-29T02:34:39;25.07;;;15.47;;
8574;SDS011;4325;42.520;27.448;2022-10-29T02:37:06;19.07;;;14.33;;
8574;SDS011;4325;42.520;27.448;2022-10-29T02:39:33;20.90;;;15.83;;
8574;SDS011;4325;42.520;27.448;2022-10-29T02:42:00;25.63;;;15.60;;
8574;SDS011;4325;42.520;27.448;2022-10-29T02:44:27;23.53;;;16.47;;
8574;SDS011;4325;42.520;27.448;2022-10-29T02:46:53;18.67;;;15.10;;
8574;SDS011;4325;42.520;27.448;2022-10-29T02:49:20;25.03;;;15.87;;
8574;SDS011;4325;42.520;27.448;2022-10-29T02:51:48;17.47;;;14.77;;
8574;SDS011;4325;42.520;27.448;2022-10-29T02:54:15;22.40;;;17.83;;
8574;SDS011;4325;42.520;27.448;2022-10-29T02:56:42;20.83;;;15.40;;
8574;SDS011;4325;42.520;27.448;2022-10-29T02:59:09;24.23;;;15.53;;
8574;SDS011;4325;42.520;27.448;2022-10-29T03:01:36;18.33;;;14.60;;
8574;SDS011;4325;42.520;27.448;2022-10-29T03:04:03;21.27;;;13.10;;
8574;SDS011;4325;42.520;27.448;2022-10-29T03:06:30;19.27;;;15.80;;
8574;SDS011;4325;42.520;27.448;2022-10-29T03:08:58;24.23;;;16.97;;
8574;SDS011;4325;42.520;27.448;2022-10-29T03:11:25;18.80;;;14.43;;
8574;SDS011;4325;42.520;27.448;2022-10-29T03:13:52;17.60;;;13.07;;
8574;SDS011;4325;42.520;27.448;2022-10-29T03:16:18;18.83;;;12.73;;
8574;SDS011;4325;42.520;27.448;2022-10-29T03:18:45;16.93;;;12.87;;
8574;SDS011;4325;42.520;27.448;2022-10-29T03:21:12;17.73;;;13.43;;
8574;SDS011;4325;42.520;27.448;2022-10-29T03:23:39;17.77;;;12.87;;
8574;SDS011;4325;42.520;27.448;2022-10-29T03:26:07;25.63;;;13.63;;
8574;SDS011;4325;42.520;27.448;2022-10-29T03:28:34;17.03;;;13.60;;
8574;SDS011;4325;42.520;27.448;2022-10-29T03:31:01;17.17;;;13.93;;
8574;SDS011;4325;42.520;27.448;2022-10-29T03:33:28;17.27;;;14.40;;
8574;SDS011;4325;42.520;27.448;2022-10-29T03:35:55;18.00;;;15.57;;
8574;SDS011;4325;42.520;27.448;2022-10-29T03:38:23;21.07;;;15.63;;
8574;SDS011;4325;42.520;27.448;2022-10-29T03:40:50;19.07;;;15.07;;
8574;SDS011;4325;42.520;27.448;2022-10-29T03:43:18;21.60;;;14.07;;
8574;SDS011;4325;42.520;27.448;2022-10-29T03:45:48;19.37;;;14.40;;
8574;SDS011;4325;42.520;27.448;2022-10-29T03:48:16;20.90;;;14.53;;
8574;SDS011;4325;42.520;27.448;2022-10-29T03:50:43;17.97;;;13.80;;
8574;SDS011;4325;42.520;27.448;2022-10-29T03:53:09;21.60;;;15.17;;
8574;SDS011;4325;42.520;27.448;2022-10-29T03:55:36;19.77;;;15.70;;
8574;SDS011;4325;42.520;27.448;2022-10-29T03:58:03;17.70;;;13.73;;
8574;SDS011;4325;42.520;27.448;2022-10-29T04:00:31;16.50;;;13.83;;
8574;SDS011;4325;42.520;27.448;2022-10-29T04:02:58;18.00;;;13.97;;
8574;SDS011;4325;42.520;27.448;2022-10-29T04:05:25;17.03;;;14.13;;
8574;SDS011;4325;42.520;27.448;2022-10-29T04:07:52;17.07;;;13.50;;
8574;SDS011;4325;42.520;27.448;2022-10-29T04:10:19;19.70;;;13.83;;
8574;SDS011;4325;42.520;27.448;2022-10-29T04:12:45;15.57;;;13.70;;
8574;SDS011;4325;42.520;27.448;2022-10-29T04:15:12;22.80;;;15.20;;
8574;SDS011;4325;42.520;27.448;2022-10-29T04:17:41;22.87;;;15.93;;
8574;SDS011;4325;42.520;27.448;2022-10-29T04:20:08;19.03;;;15.07;;
8574;SDS011;4325;42.520;27.448;2022-10-29T04:22:35;19.47;;;14.80;;
8574;SDS011;4325;42.520;27.448;2022-10-29T04:25:02;18.53;;;14.40;;
8574;SDS011;4325;42.520;27.448;2022-10-29T04:27:29;16.97;;;13.87;;
8574;SDS011;4325;42.520;27.448;2022-10-29T04:29:57;74.93;;;15.57;;
8574;SDS011;4325;42.520;27.448;2022-10-29T04:32:23;19.13;;;14.47;;
8574;SDS011;4325;42.520;27.448;2022-10-29T04:34:52;22.20;;;15.83;;
8574;SDS011;4325;42.520;27.448;2022-10-29T04:37:18;19.73;;;15.23;;
8574;SDS011;4325;42.520;27.448;2022-10-29T04:39:45;26.23;;;15.77;;
8574;SDS011;4325;42.520;27.448;2022-10-29T04:42:12;19.50;;;16.10;;
8574;SDS011;4325;42.520;27.448;2022-10-29T04:44:39;19.23;;;16.10;;
8574;SDS011;4325;42.520;27.448;2022-10-29T04:47:06;17.43;;;14.40;;
8574;SDS011;4325;42.520;27.448;2022-10-29T04:49:32;18.80;;;15.77;;
8574;SDS011;4325;42.520;27.448;2022-10-29T04:52:01;22.77;;;15.83;;
8574;SDS011;4325;42.520;27.448;2022-10-29T04:54:27;20.60;;;16.33;;
8574;SDS011;4325;42.520;27.448;2022-10-29T04:56:54;21.00;;;16.87;;
8574;SDS011;4325;42.520;27.448;2022-10-29T04:59:21;18.37;;;15.40;;
8574;SDS011;4325;42.520;27.448;2022-10-29T05:01:48;24.87;;;15.57;;
8574;SDS011;4325;42.520;27.448;2022-10-29T05:04:15;22.40;;;15.67;;
8574;SDS011;4325;42.520;27.448;2022-10-29T05:06:42;20.17;;;14.80;;
8574;SDS011;4325;42.520;27.448;2022-10-29T05:09:10;19.93;;;14.93;;
8574;SDS011;4325;42.520;27.448;2022-10-29T05:11:37;17.10;;;13.47;;
8574;SDS011;4325;42.520;27.448;2022-10-29T05:14:03;21.17;;;15.17;;
8574;SDS011;4325;42.520;27.448;2022-10-29T05:16:30;18.37;;;14.53;;
8574;SDS011;4325;42.520;27.448;2022-10-29T05:18:58;21.77;;;14.80;;
8574;SDS011;4325;42.520;27.448;2022-10-29T05:21:24;19.07;;;13.83;;
8574;SDS011;4325;42.520;27.448;2022-10-29T05:23:51;17.87;;;13.97;;
8574;SDS011;4325;42.520;27.448;2022-10-29T05:26:19;20.03;;;14.93;;
8574;SDS011;4325;42.520;27.448;2022-10-29T05:28:47;20.93;;;15.77;;
8574;SDS011;4325;42.520;27.448;2022-10-29T05:31:15;19.83;;;14.73;;
8574;SDS011;4325;42.520;27.448;2022-10-29T05:33:42;19.90;;;15.47;;
8574;SDS011;4325;42.520;27.448;2022-10-29T05:36:10;25.57;;;15.63;;
8574;SDS011;4325;42.520;27.448;2022-10-29T05:38:36;34.67;;;16.37;;
8574;SDS011;4325;42.520;27.448;2022-10-29T05:41:03;23.83;;;14.63;;
8574;SDS011;4325;42.520;27.448;2022-10-29T05:43:32;21.70;;;16.20;;
8574;SDS011;4325;42.520;27.448;2022-10-29T05:46:00;19.80;;;15.13;;
8574;SDS011;4325;42.520;27.448;2022-10-29T05:48:27;19.67;;;15.03;;
8574;SDS011;4325;42.520;27.448;2022-10-29T05:50:55;18.40;;;14.67;;
8574;SDS011;4325;42.520;27.448;2022-10-29T05:53:22;15.17;;;13.30;;
8574;SDS011;4325;42.520;27.448;2022-10-29T05:55:49;17.03;;;14.17;;
8574;SDS011;4325;42.520;27.448;2022-10-29T05:58:16;22.57;;;15.07;;
8574;SDS011;4325;42.520;27.448;2022-10-29T06:00:44;19.10;;;13.97;;
8574;SDS011;4325;42.520;27.448;2022-10-29T06:03:12;18.50;;;12.90;;
8574;SDS011;4325;42.520;27.448;2022-10-29T06:05:40;24.23;;;13.53;;
8574;SDS011;4325;42.520;27.448;2022-10-29T06:08:07;15.43;;;12.87;;
8574;SDS011;4325;42.520;27.448;2022-10-29T06:10:34;15.27;;;12.30;;
8574;SDS011;4325;42.520;27.448;2022-10-29T06:13:02;15.73;;;12.57;;
8574;SDS011;4325;42.520;27.448;2022-10-29T06:15:35;16.63;;;13.17;;
8574;SDS011;4325;42.520;27.448;2022-10-29T06:18:21;16.93;;;12.70;;
8574;SDS011;4325;42.520;27.448;2022-10-29T06:20:47;18.73;;;12.60;;
8574;SDS011;4325;42.520;27.448;2022-10-29T06:23:14;19.33;;;12.87;;
8574;SDS011;4325;42.520;27.448;2022-10-29T06:25:41;16.17;;;11.50;;
8574;SDS011;4325;42.520;27.448;2022-10-29T06:28:09;15.13;;;11.23;;
8574;SDS011;4325;42.520;27.448;2022-10-29T06:30:39;14.23;;;10.70;;
8574;SDS011;4325;42.520;27.448;2022-10-29T06:33:06;14.70;;;10.00;;
8574;SDS011;4325;42.520;27.448;2022-10-29T06:35:35;15.53;;;10.60;;
8574;SDS011;4325;42.520;27.448;2022-10-29T06:38:02;11.73;;;10.33;;
8574;SDS011;4325;42.520;27.448;2022-10-29T06:40:29;13.27;;;9.57;;
8574;SDS011;4325;42.520;27.448;2022-10-29T06:42:59;9.67;;;8.67;;
8574;SDS011;4325;42.520;27.448;2022-10-29T06:45:26;11.00;;;8.40;;
8574;SDS011;4325;42.520;27.448;2022-10-29T06:47:54;8.70;;;7.80;;
8574;SDS011;4325;42.520;27.448;2022-10-29T06:50:22;8.77;;;7.87;;
8574;SDS011;4325;42.520;27.448;2022-10-29T06:52:57;10.80;;;9.70;;
8574;SDS011;4325;42.520;27.448;2022-10-29T06:55:24;9.70;;;8.80;;
8574;SDS011;4325;42.520;27.448;2022-10-29T06:57:55;10.77;;;9.50;;
8574;SDS011;4325;42.520;27.448;2022-10-29T07:00:23;10.77;;;8.93;;
8574;SDS011;4325;42.520;27.448;2022-10-29T07:02:50;11.67;;;9.13;;
8574;SDS011;4325;42.520;27.448;2022-10-29T07:05:17;11.07;;;9.33;;
8574;SDS011;4325;42.520;27.448;2022-10-29T07:07:44;11.13;;;9.83;;
8574;SDS011;4325;42.520;27.448;2022-10-29T07:10:13;9.23;;;8.40;;
8574;SDS011;4325;42.520;27.448;2022-10-29T07:12:40;13.53;;;8.77;;
8574;SDS011;4325;42.520;27.448;2022-10-29T07:15:08;10.17;;;7.20;;
8574;SDS011;4325;42.520;27.448;2022-10-29T07:17:35;6.87;;;5.80;;
8574;SDS011;4325;42.520;27.448;2022-10-29T07:20:03;8.33;;;6.27;;
8574;SDS011;4325;42.520;27.448;2022-10-29T07:22:31;7.27;;;6.43;;
8574;SDS011;4325;42.520;27.448;2022-10-29T07:24:58;6.00;;;5.33;;
8574;SDS011;4325;42.520;27.448;2022-10-29T07:27:27;7.07;;;5.53;;
8574;SDS011;4325;42.520;27.448;2022-10-29T07:29:54;4.50;;;4.10;;
8574;SDS011;4325;42.520;27.448;2022-10-29T07:32:21;5.77;;;5.17;;
8574;SDS011;4325;42.520;27.448;2022-10-29T07:34:48;5.17;;;4.70;;
8574;SDS011;4325;42.520;27.448;2022-10-29T07:37:15;6.13;;;5.43;;
8574;SDS011;4325;42.520;27.448;2022-10-29T07:39:42;6.07;;;5.33;;
8574;SDS011;4325;42.520;27.448;2022-10-29T07:42:08;6.10;;;5.50;;
8574;SDS011;4325;42.520;27.448;2022-10-29T07:44:37;7.03;;;5.67;;
8574;SDS011;4325;42.520;27.448;2022-10-29T07:47:03;7.87;;;6.13;;
8574;SDS011;4325;42.520;27.448;2022-10-29T07:49:30;6.07;;;5.53;;
8574;SDS011;4325;42.520;27.448;2022-10-29T07:51:57;8.33;;;5.87;;
8574;SDS011;4325;42.520;27.448;2022-10-29T07:54:24;6.40;;;5.80;;
8574;SDS011;4325;42.520;27.448;2022-10-29T07:56:51;7.73;;;5.83;;
8574;SDS011;4325;42.520;27.448;2022-10-29T07:59:18;8.17;;;5.30;;
8574;SDS011;4325;42.520;27.448;2022-10-29T08:01:46;6.37;;;5.77;;
8574;SDS011;4325;42.520;27.448;2022-10-29T08:04:13;7.97;;;5.47;;
8574;SDS011;4325;42.520;27.448;2022-10-29T08:06:40;7.40;;;5.80;;
8574;SDS011;4325;42.520;27.448;2022-10-29T08:09:07;9.67;;;7.53;;
8574;SDS011;4325;42.520;27.448;2022-10-29T08:11:35;16.43;;;14.73;;
8574;SDS011;4325;42.520;27.448;2022-10-29T08:14:02;13.07;;;11.77;;
8574;SDS011;4325;42.520;27.448;2022-10-29T08:16:29;10.93;;;8.27;;
8574;SDS011;4325;42.520;27.448;2022-10-29T08:18:57;13.70;;;10.03;;
8574;SDS011;4325;42.520;27.448;2022-10-29T08:21:24;9.70;;;8.57;;
8574;SDS011;4325;42.520;27.448;2022-10-29T08:23:51;7.63;;;6.93;;
8574;SDS011;4325;42.520;27.448;2022-10-29T08:26:18;8.33;;;7.50;;
8574;SDS011;4325;42.520;27.448;2022-10-29T08:28:45;9.97;;;7.17;;
8574;SDS011;4325;42.520;27.448;2022-10-29T08:31:12;8.53;;;6.63;;
8574;SDS011;4325;42.520;27.448;2022-10-29T08:33:40;7.80;;;6.13;;
8574;SDS011;4325;42.520;27.448;2022-10-29T08:36:08;8.87;;;5.97;;
8574;SDS011;4325;42.520;27.448;2022-10-29T08:38:35;11.23;;;7.00;;
8574;SDS011;4325;42.520;27.448;2022-10-29T08:41:22;6.47;;;5.77;;
8574;SDS011;4325;42.520;27.448;2022-10-29T08:46:59;8.60;;;6.47;;
8574;SDS011;4325;42.520;27.448;2022-10-29T08:49:34;10.33;;;5.17;;
8574;SDS011;4325;42.520;27.448;2022-10-29T08:52:08;7.30;;;5.77;;
8574;SDS011;4325;42.520;27.448;2022-10-29T08:54:38;7.03;;;4.97;;
8574;SDS011;4325;42.520;27.448;2022-10-29T08:57:07;6.80;;;6.20;;
8574;SDS011;4325;42.520;27.448;2022-10-29T08:59:40;7.80;;;5.30;;
8574;SDS011;4325;42.520;27.448;2022-10-29T09:02:12;7.63;;;5.50;;
8574;SDS011;4325;42.520;27.448;2022-10-29T09:04:42;7.20;;;5.90;;
8574;SDS011;4325;42.520;27.448;2022-10-29T09:07:17;6.17;;;5.57;;
8574;SDS011;4325;42.520;27.448;2022-10-29T09:09:54;11.97;;;4.70;;
8574;SDS011;4325;42.520;27.448;2022-10-29T09:12:29;7.93;;;5.03;;
8574;SDS011;4325;42.520;27.448;2022-10-29T09:15:13;5.47;;;4.83;;
8574;SDS011;4325;42.520;27.448;2022-10-29T09:17:54;5.93;;;5.00;;
8574;SDS011;4325;42.520;27.448;2022-10-29T09:20:36;9.20;;;4.70;;
8574;SDS011;4325;42.520;27.448;2022-10-29T09:23:13;9.33;;;5.17;;
8574;SDS011;4325;42.520;27.448;2022-10-29T09:25:48;10.43;;;5.63;;
8574;SDS011;4325;42.520;27.448;2022-10-29T09:28:23;8.67;;;4.87;;
8574;SDS011;4325;42.520;27.448;2022-10-29T09:30:59;4.67;;;4.13;;
8574;SDS011;4325;42.520;27.448;2022-10-29T09:33:33;4.43;;;4.03;;
8574;SDS011;4325;42.520;27.448;2022-10-29T09:36:00;7.80;;;4.13;;
8574;SDS011;4325;42.520;27.448;2022-10-29T09:38:30;6.23;;;4.43;;
8574;SDS011;4325;42.520;27.448;2022-10-29T09:41:00;6.73;;;5.07;;
8574;SDS011;4325;42.520;27.448;2022-10-29T09:43:31;7.10;;;4.07;;
8574;SDS011;4325;42.520;27.448;2022-10-29T09:46:08;6.70;;;4.47;;
8574;SDS011;4325;42.520;27.448;2022-10-29T09:48:43;7.30;;;4.50;;
8574;SDS011;4325;42.520;27.448;2022-10-29T09:51:20;5.57;;;4.03;;
8574;SDS011;4325;42.520;27.448;2022-10-29T09:53:57;5.87;;;4.20;;
8574;SDS011;4325;42.520;27.448;2022-10-29T09:56:24;8.90;;;4.20;;
8574;SDS011;4325;42.520;27.448;2022-10-29T09:58:52;6.33;;;4.37;;
8574;SDS011;4325;42.520;27.448;2022-10-29T10:01:42;5.75;;;4.30;;
8574;SDS011;4325;42.520;27.448;2022-10-29T10:04:12;4.88;;;4.38;;
8574;SDS011;4325;42.520;27.448;2022-10-29T10:07:02;9.35;;;8.27;;
8574;SDS011;4325;42.520;27.448;2022-10-29T10:12:27;7.70;;;4.18;;
8574;SDS011;4325;42.520;27.448;2022-10-29T10:15:02;5.80;;;3.78;;
8574;SDS011;4325;42.520;27.448;2022-10-29T10:20:26;6.70;;;2.50;;
8574;SDS011;4325;42.520;27.448;2022-10-29T10:22:59;3.17;;;2.60;;
8574;SDS011;4325;42.520;27.448;2022-10-29T10:25:31;9.70;;;2.60;;
8574;SDS011;4325;42.520;27.448;2022-10-29T10:28:04;2.95;;;2.75;;
8574;SDS011;4325;42.520;27.448;2022-10-29T10:30:42;5.75;;;3.40;;
8574;SDS011;4325;42.520;27.448;2022-10-29T10:33:10;5.40;;;2.70;;
8574;SDS011;4325;42.520;27.448;2022-10-29T10:35:47;8.80;;;2.97;;
8574;SDS011;4325;42.520;27.448;2022-10-29T10:38:14;5.90;;;2.67;;
8574;SDS011;4325;42.520;27.448;2022-10-29T10:40:43;3.05;;;2.80;;
8574;SDS011;4325;42.520;27.448;2022-10-29T10:43:19;4.28;;;2.30;;
8574;SDS011;4325;42.520;27.448;2022-10-29T10:45:53;3.13;;;2.53;;
8574;SDS011;4325;42.520;27.448;2022-10-29T10:48:24;5.63;;;2.95;;
8574;SDS011;4325;42.520;27.448;2022-10-29T10:51:06;4.53;;;2.90;;
8574;SDS011;4325;42.520;27.448;2022-10-29T10:53:35;4.47;;;2.40;;
8574;SDS011;4325;42.520;27.448;2022-10-29T10:56:12;2.83;;;2.58;;
8574;SDS011;4325;42.520;27.448;2022-10-29T10:58:44;3.70;;;2.88;;
8574;SDS011;4325;42.520;27.448;2022-10-29T11:01:16;3.70;;;2.85;;
8574;SDS011;4325;42.520;27.448;2022-10-29T11:03:48;4.45;;;2.92;;
8574;SDS011;4325;42.520;27.448;2022-10-29T11:06:21;4.00;;;3.33;;
8574;SDS011;4325;42.520;27.448;2022-10-29T11:08:53;4.00;;;3.60;;
8574;SDS011;4325;42.520;27.448;2022-10-29T11:11:26;4.65;;;3.35;;
8574;SDS011;4325;42.520;27.448;2022-10-29T11:13:59;3.42;;;3.13;;
8574;SDS011;4325;42.520;27.448;2022-10-29T11:16:29;6.72;;;3.20;;
8574;SDS011;4325;42.520;27.448;2022-10-29T11:19:03;5.85;;;3.13;;
8574;SDS011;4325;42.520;27.448;2022-10-29T11:21:39;8.07;;;3.10;;
8574;SDS011;4325;42.520;27.448;2022-10-29T11:24:09;5.10;;;2.85;;
8574;SDS011;4325;42.520;27.448;2022-10-29T11:26:41;4.05;;;3.22;;
8574;SDS011;4325;42.520;27.448;2022-10-29T11:29:14;5.00;;;3.17;;
8574;SDS011;4325;42.520;27.448;2022-10-29T11:31:48;5.38;;;2.83;;
8574;SDS011;4325;42.520;27.448;2022-10-29T11:34:22;4.05;;;3.00;;
8574;SDS011;4325;42.520;27.448;2022-10-29T11:36:55;4.45;;;2.95;;
8574;SDS011;4325;42.520;27.448;2022-10-29T11:39:30;7.00;;;3.28;;
8574;SDS011;4325;42.520;27.448;2022-10-29T11:42:10;6.38;;;3.38;;
8574;SDS011;4325;42.520;27.448;2022-10-29T11:44:37;4.82;;;3.20;;
8574;SDS011;4325;42.520;27.448;2022-10-29T11:47:09;5.35;;;2.92;;
8574;SDS011;4325;42.520;27.448;2022-10-29T11:49:51;4.70;;;2.70;;
8574;SDS011;4325;42.520;27.448;2022-10-29T11:52:32;7.18;;;3.53;;
8574;SDS011;4325;42.520;27.448;2022-10-29T11:55:14;8.18;;;3.33;;
8574;SDS011;4325;42.520;27.448;2022-10-29T11:57:53;3.78;;;3.10;;
8574;SDS011;4325;42.520;27.448;2022-10-29T12:00:23;4.20;;;2.80;;
8574;SDS011;4325;42.520;27.448;2022-10-29T12:06:12;3.38;;;2.58;;
8574;SDS011;4325;42.520;27.448;2022-10-29T12:08:47;4.45;;;3.03;;
8574;SDS011;4325;42.520;27.448;2022-10-29T12:11:28;4.22;;;2.90;;
8574;SDS011;4325;42.520;27.448;2022-10-29T12:14:09;4.55;;;2.72;;
8574;SDS011;4325;42.520;27.448;2022-10-29T12:16:48;6.50;;;3.47;;
8574;SDS011;4325;42.520;27.448;2022-10-29T12:19:25;3.47;;;2.92;;
8574;SDS011;4325;42.520;27.448;2022-10-29T12:22:05;3.03;;;2.63;;
8574;SDS011;4325;42.520;27.448;2022-10-29T12:24:48;7.07;;;3.15;;
8574;SDS011;4325;42.520;27.448;2022-10-29T12:27:26;3.97;;;3.00;;
8574;SDS011;4325;42.520;27.448;2022-10-29T12:30:04;4.30;;;2.47;;
8574;SDS011;4325;42.520;27.448;2022-10-29T12:32:35;6.18;;;2.83;;
8574;SDS011;4325;42.520;27.448;2022-10-29T12:35:09;5.72;;;2.60;;
8574;SDS011;4325;42.520;27.448;2022-10-29T12:37:45;2.90;;;2.70;;
8574;SDS011;4325;42.520;27.448;2022-10-29T12:40:21;6.00;;;2.50;;
8574;SDS011;4325;42.520;27.448;2022-10-29T12:42:51;6.45;;;2.45;;
8574;SDS011;4325;42.520;27.448;2022-10-29T12:45:24;5.80;;;2.22;;
8574;SDS011;4325;42.520;27.448;2022-10-29T12:47:59;3.03;;;2.30;;
8574;SDS011;4325;42.520;27.448;2022-10-29T12:50:37;2.63;;;2.42;;
8574;SDS011;4325;42.520;27.448;2022-10-29T12:53:15;4.05;;;2.30;;
8574;SDS011;4325;42.520;27.448;2022-10-29T12:55:50;6.22;;;2.50;;
8574;SDS011;4325;42.520;27.448;2022-10-29T13:04:23;4.05;;;2.60;;
8574;SDS011;4325;42.520;27.448;2022-10-29T13:07:04;3.38;;;2.45;;
8574;SDS011;4325;42.520;27.448;2022-10-29T13:09:47;3.40;;;2.45;;
8574;SDS011;4325;42.520;27.448;2022-10-29T13:12:18;4.22;;;2.60;;
8574;SDS011;4325;42.520;27.448;2022-10-29T13:15:18;5.55;;;2.50;;
8574;SDS011;4325;42.520;27.448;2022-10-29T13:17:47;5.55;;;2.50;;
8574;SDS011;4325;42.520;27.448;2022-10-29T13:20:19;2.42;;;2.22;;
8574;SDS011;4325;42.520;27.448;2022-10-29T13:22:52;3.30;;;2.22;;
8574;SDS011;4325;42.520;27.448;2022-10-29T13:37:38;2.67;;;2.35;;
8574;SDS011;4325;42.520;27.448;2022-10-29T13:43:27;4.05;;;2.78;;
8574;SDS011;4325;42.520;27.448;2022-10-29T13:46:00;3.08;;;2.70;;
8574;SDS011;4325;42.520;27.448;2022-10-29T13:48:51;4.23;;;2.80;;
8574;SDS011;4325;42.520;27.448;2022-10-29T13:51:22;3.43;;;3.13;;
8574;SDS011;4325;42.520;27.448;2022-10-29T13:53:57;5.63;;;3.23;;
8574;SDS011;4325;42.520;27.448;2022-10-29T13:56:32;3.23;;;2.80;;
8574;SDS011;4325;42.520;27.448;2022-10-29T13:59:03;5.77;;;2.77;;
8574;SDS011;4325;42.520;27.448;2022-10-29T14:01:39;5.17;;;2.97;;
8574;SDS011;4325;42.520;27.448;2022-10-29T14:04:17;3.10;;;2.77;;
8574;SDS011;4325;42.520;27.448;2022-10-29T14:06:49;4.43;;;2.57;;
8574;SDS011;4325;42.520;27.448;2022-10-29T14:09:19;5.10;;;2.90;;
8574;SDS011;4325;42.520;27.448;2022-10-29T14:11:51;5.03;;;3.07;;
8574;SDS011;4325;42.520;27.448;2022-10-29T14:14:25;2.70;;;2.50;;
8574;SDS011;4325;42.520;27.448;2022-10-29T14:19:42;8.20;;;3.30;;
8574;SDS011;4325;42.520;27.448;2022-10-29T14:25:21;7.73;;;2.90;;
8574;SDS011;4325;42.520;27.448;2022-10-29T14:30:58;3.30;;;2.77;;
8574;SDS011;4325;42.520;27.448;2022-10-29T14:33:27;3.70;;;2.60;;
8574;SDS011;4325;42.520;27.448;2022-10-29T14:35:57;3.67;;;2.57;;
8574;SDS011;4325;42.520;27.448;2022-10-29T14:38:32;4.37;;;3.20;;
8574;SDS011;4325;42.520;27.448;2022-10-29T14:41:04;7.73;;;3.23;;
8574;SDS011;4325;42.520;27.448;2022-10-29T14:43:31;5.90;;;3.70;;
8574;SDS011;4325;42.520;27.448;2022-10-29T14:46:08;6.20;;;3.40;;
8574;SDS011;4325;42.520;27.448;2022-10-29T14:48:52;6.63;;;3.90;;
8574;SDS011;4325;42.520;27.448;2022-10-29T14:51:32;4.27;;;3.47;;
8574;SDS011;4325;42.520;27.448;2022-10-29T14:54:04;5.63;;;4.17;;
8574;SDS011;4325;42.520;27.448;2022-10-29T14:56:34;4.60;;;4.00;;
8574;SDS011;4325;42.520;27.448;2022-10-29T14:59:12;4.83;;;4.33;;
8574;SDS011;4325;42.520;27.448;2022-10-29T15:01:45;6.33;;;3.83;;
8574;SDS011;4325;42.520;27.448;2022-10-29T15:04:18;5.47;;;4.20;;
8574;SDS011;4325;42.520;27.448;2022-10-29T15:06:46;6.10;;;4.37;;
8574;SDS011;4325;42.520;27.448;2022-10-29T15:09:13;5.80;;;4.30;;
8574;SDS011;4325;42.520;27.448;2022-10-29T15:11:57;6.43;;;3.77;;
8574;SDS011;4325;42.520;27.448;2022-10-29T15:14:31;8.80;;;3.83;;
8574;SDS011;4325;42.520;27.448;2022-10-29T15:17:06;7.00;;;4.33;;
8574;SDS011;4325;42.520;27.448;2022-10-29T15:19:36;6.60;;;4.10;;
8574;SDS011;4325;42.520;27.448;2022-10-29T15:22:08;7.67;;;4.40;;
8574;SDS011;4325;42.520;27.448;2022-10-29T15:24:36;9.47;;;3.60;;
8574;SDS011;4325;42.520;27.448;2022-10-29T15:27:05;6.70;;;3.80;;
8574;SDS011;4325;42.520;27.448;2022-10-29T15:29:36;8.00;;;3.93;;
8574;SDS011;4325;42.520;27.448;2022-10-29T15:32:05;5.80;;;4.60;;
8574;SDS011;4325;42.520;27.448;2022-10-29T15:34:43;6.37;;;4.67;;
8574;SDS011;4325;42.520;27.448;2022-10-29T15:37:13;7.33;;;4.27;;
8574;SDS011;4325;42.520;27.448;2022-10-29T15:39:57;8.67;;;4.47;;
8574;SDS011;4325;42.520;27.448;2022-10-29T15:42:28;7.00;;;3.90;;
8574;SDS011;4325;42.520;27.448;2022-10-29T15:45:13;7.63;;;4.77;;
8574;SDS011;4325;42.520;27.448;2022-10-29T15:47:43;7.57;;;3.73;;
8574;SDS011;4325;42.520;27.448;2022-10-29T15:50:13;4.33;;;3.73;;
8574;SDS011;4325;42.520;27.448;2022-10-29T15:52:42;7.97;;;6.60;;